Buoy 33880

sailwx.info

Track history (hours):
 
Tides and Currents Weather Stations Pressure Air Temp Water Temp Dewpoint Dewpoint Depression Visibility Wind Speed Wind Dir Waves Ship Positions

Drifting buoy 33880

Last reported at 2016-Jun-28 01:00 UTC. Time now 2016-Jun-28 09:48 UTC.
Position S 40°24' W 052°06'.

Date/timePositionNaut miles runAvg speedWind from/ knotsBaromVisibWave heightAir tempDewpointWater temp
2016-Jun-28 01:00S 40°24' W 052°06'3 2.8
2016-Jun-28 00:00S 40°22' W 052°08'0 0.1
2016-Jun-27 23:00S 40°22' W 052°08'2 1.1
2016-Jun-27 21:00S 40°20' W 052°09'1110.6
2016-Jun-27 20:00S 40°12' W 052°18'8 8.4
2016-Jun-27 19:00S 40°18' W 052°11'8 8.4
2016-Jun-27 18:00S 40°12' W 052°18'6 0.8
2016-Jun-27 10:00S 40°06' W 052°23'5 2.5
2016-Jun-27 08:00S 40°02' W 052°26'0 0.0
2016-Jun-27 06:00S 40°02' W 052°26'3 2.9
2016-Jun-27 05:00S 39°60' W 052°28'3 1.7
2016-Jun-27 03:00S 39°56' W 052°29'1 1.3
2016-Jun-27 02:00S 39°55' W 052°30'1 1.1
2016-Jun-27 01:00S 39°54' W 052°30'2 1.0
2016-Jun-26 23:00S 39°53' W 052°32'3 2.8
2016-Jun-26 22:00S 39°50' W 052°33'1 0.6
2016-Jun-26 21:00S 39°50' W 052°34'2 2.1
2016-Jun-26 20:00S 39°48' W 052°34'5 2.4
2016-Jun-26 18:00S 39°43' W 052°36'9 1.5
2016-Jun-26 12:00S 39°34' W 052°38'0 0.1
2016-Jun-26 10:00S 39°34' W 052°38'6 1.6
2016-Jun-26 06:00S 39°28' W 052°39'12 1.7
2016-Jun-25 23:00S 39°16' W 052°38'0 0.0
2016-Jun-25 22:00S 39°16' W 052°38'6 1.9
2016-Jun-25 19:00S 39°11' W 052°36'0 0.0
2016-Jun-25 18:00S 39°11' W 052°36'0 0.0
2016-Jun-25 17:00S 39°11' W 052°36'16 1.5
2016-Jun-25 06:00S 38°55' W 052°32'4 3.5
2016-Jun-25 05:00S 38°51' W 052°32'0 0.0
2016-Jun-25 04:00S 38°51' W 052°32'10 3.3
2016-Jun-25 01:00S 38°42' W 052°30'6 2.0
2016-Jun-24 22:00S 38°36' W 052°30'6 2.9
2016-Jun-24 20:00S 38°30' W 052°31'6 5.9
2016-Jun-24 19:00S 38°24' W 052°32'0 0.0
2016-Jun-24 17:00S 38°24' W 052°32'13 3.3
2016-Jun-24 13:00S 38°11' W 052°33'2 2.2
2016-Jun-24 12:00S 38°09' W 052°34'6 2.8
2016-Jun-24 10:00S 38°03' W 052°33'9 4.3
2016-Jun-24 08:00S 37°55' W 052°32'4 2.2
2016-Jun-24 06:00S 37°50' W 052°31'9 2.1
2016-Jun-24 02:00S 37°42' W 052°28'11 2.9
2016-Jun-23 22:00S 37°32' W 052°21'9 3.1
2016-Jun-23 19:00S 37°24' W 052°15'0 0.0
2016-Jun-23 17:00S 37°24' W 052°15'17 3.4
2016-Jun-23 12:00S 37°10' W 052°04'5 2.4
2016-Jun-23 10:00S 37°06' W 052°00'3 2.9
2016-Jun-23 09:00S 37°03' W 051°59'5 2.6
2016-Jun-23 07:00S 36°58' W 051°58'5 4.9
2016-Jun-23 06:00S 36°53' W 051°59'0 0.0
2016-Jun-23 05:00S 36°53' W 051°59'10 3.4
2016-Jun-23 02:00S 36°44' W 052°04'3 2.6
2016-Jun-23 01:00S 36°41' W 052°05'9 4.5
2016-Jun-22 23:00S 36°35' W 052°12'8 2.6
2016-Jun-22 20:00S 36°29' W 052°18'0 0.3
2016-Jun-22 19:00S 36°29' W 052°18'19 2.8
2016-Jun-22 12:00S 36°12' W 052°31'2 1.9
2016-Jun-22 11:00S 36°11' W 052°32'3 2.7
2016-Jun-22 10:00S 36°08' W 052°33'8 2.8
2016-Jun-22 07:00S 36°00' W 052°37'4 0.8
2016-Jun-22 02:00S 35°56' W 052°37'2 1.9
2016-Jun-22 01:00S 35°55' W 052°37'4 1.3
2016-Jun-21 22:00S 35°51' W 052°38'1 0.4
2016-Jun-21 19:00S 35°49' W 052°38'6 5.5
2016-Jun-21 18:00S 35°44' W 052°38'1 0.2
2016-Jun-21 13:00S 35°43' W 052°37'0 0.0
2016-Jun-21 10:00S 35°43' W 052°37'2 0.2
2016-Jun-21 01:00S 35°41' W 052°38'1 0.2
2016-Jun-20 20:00S 35°40' W 052°39'0 0.0
2016-Jun-20 19:00S 35°40' W 052°39'2 1.5
2016-Jun-20 18:00S 35°42' W 052°39'0 0.1
2016-Jun-20 13:00S 35°42' W 052°39'1 0.2
2016-Jun-20 09:00S 35°42' W 052°40'1 0.4
2016-Jun-20 06:00S 35°41' W 052°39'1 0.3
2016-Jun-20 01:00S 35°42' W 052°38'1 0.6
2016-Jun-19 23:00S 35°42' W 052°39'1 0.1
2016-Jun-19 13:00S 35°41' W 052°39'2 0.6
2016-Jun-19 10:00S 35°40' W 052°38'2 1.1
2016-Jun-19 08:00S 35°37' W 052°38'0 0.0
2016-Jun-19 06:00S 35°37' W 052°38'3 0.6
2016-Jun-19 02:00S 35°35' W 052°40'1 0.3
2016-Jun-18 23:00S 35°35' W 052°41'3 0.5
2016-Jun-18 18:00S 35°37' W 052°43'0 0.0
2016-Jun-18 17:00S 35°37' W 052°43'2 0.3
2016-Jun-18 11:00S 35°39' W 052°44'1 0.5
2016-Jun-18 09:00S 35°39' W 052°45'0 0.0
2016-Jun-18 07:00S 35°39' W 052°45'1 0.8
2016-Jun-18 06:00S 35°39' W 052°44'2 0.4
2016-Jun-18 02:00S 35°41' W 052°44'1 0.7
2016-Jun-18 01:00S 35°42' W 052°44'  
Track history (hours):
 
Tides and Currents Weather Stations Pressure Air Temp Water Temp Dewpoint Dewpoint Depression Visibility Wind Speed Wind Dir Waves Ship Positions

Drifting buoy 33880

Last reported at 2016-Jun-28 01:00 UTC. Time now 2016-Jun-28 09:48 UTC.
Position S 40°24' W 052°06'.

Date/timePositionNaut miles runAvg speedWind from/ knotsBaromVisibWave heightAir tempDewpointWater temp
2016-Jun-28 01:00S 40°24' W 052°06'3 2.8
2016-Jun-28 00:00S 40°22' W 052°08'0 0.1
2016-Jun-27 23:00S 40°22' W 052°08'2 1.1
2016-Jun-27 21:00S 40°20' W 052°09'1110.6
2016-Jun-27 20:00S 40°12' W 052°18'8 8.4
2016-Jun-27 19:00S 40°18' W 052°11'8 8.4
2016-Jun-27 18:00S 40°12' W 052°18'6 0.8
2016-Jun-27 10:00S 40°06' W 052°23'5 2.5
2016-Jun-27 08:00S 40°02' W 052°26'0 0.0
2016-Jun-27 06:00S 40°02' W 052°26'3 2.9
2016-Jun-27 05:00S 39°60' W 052°28'3 1.7
2016-Jun-27 03:00S 39°56' W 052°29'1 1.3
2016-Jun-27 02:00S 39°55' W 052°30'1 1.1
2016-Jun-27 01:00S 39°54' W 052°30'2 1.0
2016-Jun-26 23:00S 39°53' W 052°32'3 2.8
2016-Jun-26 22:00S 39°50' W 052°33'1 0.6
2016-Jun-26 21:00S 39°50' W 052°34'2 2.1
2016-Jun-26 20:00S 39°48' W 052°34'5 2.4
2016-Jun-26 18:00S 39°43' W 052°36'9 1.5
2016-Jun-26 12:00S 39°34' W 052°38'0 0.1
2016-Jun-26 10:00S 39°34' W 052°38'6 1.6
2016-Jun-26 06:00S 39°28' W 052°39'12 1.7
2016-Jun-25 23:00S 39°16' W 052°38'0 0.0
2016-Jun-25 22:00S 39°16' W 052°38'6 1.9
2016-Jun-25 19:00S 39°11' W 052°36'0 0.0
2016-Jun-25 18:00S 39°11' W 052°36'0 0.0
2016-Jun-25 17:00S 39°11' W 052°36'16 1.5
2016-Jun-25 06:00S 38°55' W 052°32'4 3.5
2016-Jun-25 05:00S 38°51' W 052°32'0 0.0
2016-Jun-25 04:00S 38°51' W 052°32'10 3.3
2016-Jun-25 01:00S 38°42' W 052°30'6 2.0
2016-Jun-24 22:00S 38°36' W 052°30'6 2.9
2016-Jun-24 20:00S 38°30' W 052°31'6 5.9
2016-Jun-24 19:00S 38°24' W 052°32'0 0.0
2016-Jun-24 17:00S 38°24' W 052°32'13 3.3
2016-Jun-24 13:00S 38°11' W 052°33'2 2.2
2016-Jun-24 12:00S 38°09' W 052°34'6 2.8
2016-Jun-24 10:00S 38°03' W 052°33'9 4.3
2016-Jun-24 08:00S 37°55' W 052°32'4 2.2
2016-Jun-24 06:00S 37°50' W 052°31'9 2.1
2016-Jun-24 02:00S 37°42' W 052°28'11 2.9
2016-Jun-23 22:00S 37°32' W 052°21'9 3.1
2016-Jun-23 19:00S 37°24' W 052°15'0 0.0
2016-Jun-23 17:00S 37°24' W 052°15'17 3.4
2016-Jun-23 12:00S 37°10' W 052°04'5 2.4
2016-Jun-23 10:00S 37°06' W 052°00'3 2.9
2016-Jun-23 09:00S 37°03' W 051°59'5 2.6
2016-Jun-23 07:00S 36°58' W 051°58'5 4.9
2016-Jun-23 06:00S 36°53' W 051°59'0 0.0
2016-Jun-23 05:00S 36°53' W 051°59'10 3.4
2016-Jun-23 02:00S 36°44' W 052°04'3 2.6
2016-Jun-23 01:00S 36°41' W 052°05'9 4.5
2016-Jun-22 23:00S 36°35' W 052°12'8 2.6
2016-Jun-22 20:00S 36°29' W 052°18'0 0.3
2016-Jun-22 19:00S 36°29' W 052°18'19 2.8
2016-Jun-22 12:00S 36°12' W 052°31'2 1.9
2016-Jun-22 11:00S 36°11' W 052°32'3 2.7
2016-Jun-22 10:00S 36°08' W 052°33'8 2.8
2016-Jun-22 07:00S 36°00' W 052°37'4 0.8
2016-Jun-22 02:00S 35°56' W 052°37'2 1.9
2016-Jun-22 01:00S 35°55' W 052°37'4 1.3
2016-Jun-21 22:00S 35°51' W 052°38'1 0.4
2016-Jun-21 19:00S 35°49' W 052°38'6 5.5
2016-Jun-21 18:00S 35°44' W 052°38'1 0.2
2016-Jun-21 13:00S 35°43' W 052°37'0 0.0
2016-Jun-21 10:00S 35°43' W 052°37'2 0.2
2016-Jun-21 01:00S 35°41' W 052°38'1 0.2
2016-Jun-20 20:00S 35°40' W 052°39'0 0.0
2016-Jun-20 19:00S 35°40' W 052°39'2 1.5
2016-Jun-20 18:00S 35°42' W 052°39'0 0.1
2016-Jun-20 13:00S 35°42' W 052°39'1 0.2
2016-Jun-20 09:00S 35°42' W 052°40'1 0.4
2016-Jun-20 06:00S 35°41' W 052°39'1 0.3
2016-Jun-20 01:00S 35°42' W 052°38'1 0.6
2016-Jun-19 23:00S 35°42' W 052°39'1 0.1
2016-Jun-19 13:00S 35°41' W 052°39'2 0.6
2016-Jun-19 10:00S 35°40' W 052°38'2 1.1
2016-Jun-19 08:00S 35°37' W 052°38'0 0.0
2016-Jun-19 06:00S 35°37' W 052°38'3 0.6
2016-Jun-19 02:00S 35°35' W 052°40'1 0.3
2016-Jun-18 23:00S 35°35' W 052°41'3 0.5
2016-Jun-18 18:00S 35°37' W 052°43'0 0.0
2016-Jun-18 17:00S 35°37' W 052°43'2 0.3
2016-Jun-18 11:00S 35°39' W 052°44'1 0.5
2016-Jun-18 09:00S 35°39' W 052°45'0 0.0
2016-Jun-18 07:00S 35°39' W 052°45'1 0.8
2016-Jun-18 06:00S 35°39' W 052°44'2 0.4
2016-Jun-18 02:00S 35°41' W 052°44'1 0.7
2016-Jun-18 01:00S 35°42' W 052°44'  

Dump ship's entire track history